createdAt,value
2022-07-27T00:01:28.191Z,18.18
2022-07-27T00:03:45.531Z,18.21
2022-07-27T00:06:02.856Z,18.20
2022-07-27T00:08:20.006Z,18.15
2022-07-27T00:10:36.913Z,18.15
2022-07-27T00:12:54.024Z,18.15
2022-07-27T00:15:11.331Z,18.14
2022-07-27T00:17:28.289Z,18.13
2022-07-27T00:19:45.401Z,18.13
2022-07-27T00:22:04.612Z,18.09
2022-07-27T00:24:21.771Z,18.10
2022-07-27T00:26:38.850Z,18.14
2022-07-27T00:28:55.825Z,18.13
2022-07-27T00:31:12.941Z,18.14
2022-07-27T00:33:30.099Z,18.15
2022-07-27T00:35:48.345Z,18.14
2022-07-27T00:38:05.682Z,18.12
2022-07-27T00:40:23.051Z,18.18
2022-07-27T00:42:39.998Z,18.20
2022-07-27T00:44:57.188Z,18.19
2022-07-27T00:47:14.552Z,18.18
2022-07-27T00:49:31.623Z,18.22
2022-07-27T00:51:48.691Z,18.20
2022-07-27T00:54:06.022Z,18.20
2022-07-27T00:56:23.358Z,18.21
2022-07-27T00:58:40.713Z,18.20
2022-07-27T01:00:57.630Z,18.19
2022-07-27T01:03:16.419Z,18.16
2022-07-27T01:05:36.599Z,18.17
2022-07-27T01:07:54.925Z,18.14
2022-07-27T01:10:14.670Z,18.14
2022-07-27T01:12:31.694Z,18.15
2022-07-27T01:14:49.336Z,18.14
2022-07-27T01:17:07.518Z,18.12
2022-07-27T01:19:24.589Z,18.13
2022-07-27T01:21:41.680Z,18.09
2022-07-27T01:23:58.755Z,18.09
2022-07-27T01:26:16.078Z,18.09
2022-07-27T01:28:33.164Z,18.09
2022-07-27T01:30:50.263Z,18.14
2022-07-27T01:33:07.656Z,18.12
2022-07-27T01:35:24.746Z,18.16
2022-07-27T01:37:42.013Z,18.24
2022-07-27T01:40:05.425Z,18.32
2022-07-27T01:42:23.685Z,18.38
2022-07-27T01:44:41.750Z,18.42
2022-07-27T01:46:59.112Z,18.39
2022-07-27T01:49:16.756Z,18.40
2022-07-27T01:51:34.211Z,18.33
2022-07-27T01:53:51.205Z,18.32
2022-07-27T01:56:08.276Z,18.35
2022-07-27T01:58:26.056Z,18.44
2022-07-27T02:00:43.377Z,18.45
2022-07-27T02:03:01.763Z,18.46
2022-07-27T02:05:18.946Z,18.41
2022-07-27T02:07:36.304Z,18.37
2022-07-27T02:09:54.752Z,18.33
2022-07-27T02:12:12.032Z,18.34
2022-07-27T02:14:29.502Z,18.33
2022-07-27T02:16:46.562Z,18.25
2022-07-27T02:19:04.944Z,18.27
2022-07-27T02:21:22.519Z,18.24
2022-07-27T02:23:40.792Z,18.23
2022-07-27T02:25:59.120Z,18.15
2022-07-27T02:28:16.454Z,18.15
2022-07-27T02:30:34.689Z,18.26
2022-07-27T02:32:51.975Z,18.23
2022-07-27T02:35:18.920Z,18.16
2022-07-27T02:37:37.530Z,18.21
2022-07-27T02:39:55.849Z,18.26
2022-07-27T02:42:12.908Z,18.19
2022-07-27T02:44:30.794Z,18.27
2022-07-27T02:46:49.391Z,18.27
2022-07-27T02:49:06.739Z,18.28
2022-07-27T02:51:23.926Z,18.17
2022-07-27T02:53:41.064Z,18.15
2022-07-27T02:55:58.131Z,18.16
2022-07-27T02:58:15.221Z,18.16
2022-07-27T03:00:32.566Z,18.14
2022-07-27T03:02:50.606Z,18.10
2022-07-27T03:05:08.862Z,18.03
2022-07-27T03:07:25.822Z,18.04
2022-07-27T03:09:45.385Z,17.99
2022-07-27T03:12:05.280Z,17.97
2022-07-27T03:14:22.521Z,17.98
2022-07-27T03:16:39.861Z,18.00
2022-07-27T03:18:56.959Z,18.07
2022-07-27T03:21:14.298Z,18.04
2022-07-27T03:23:31.297Z,18.05
2022-07-27T03:25:48.677Z,18.10
2022-07-27T03:28:06.647Z,18.09
2022-07-27T03:30:23.763Z,18.08
2022-07-27T03:32:40.848Z,18.09
2022-07-27T03:34:57.887Z,18.02
2022-07-27T03:37:15.182Z,18.07
2022-07-27T03:39:32.284Z,18.05
2022-07-27T03:41:49.341Z,18.02
2022-07-27T03:44:06.268Z,17.98
2022-07-27T03:46:23.450Z,17.95
2022-07-27T03:48:40.823Z,17.97
2022-07-27T03:50:58.202Z,18.02
2022-07-27T03:53:15.320Z,17.95
2022-07-27T03:55:32.328Z,17.94
2022-07-27T03:57:49.290Z,17.87
2022-07-27T04:00:06.285Z,17.90
2022-07-27T04:02:23.340Z,18.02
2022-07-27T04:04:40.704Z,17.95
2022-07-27T04:06:58.081Z,17.95
2022-07-27T04:09:15.500Z,17.85
2022-07-27T04:11:32.858Z,17.80
2022-07-27T04:13:50.434Z,17.87
2022-07-27T04:16:07.515Z,17.89
2022-07-27T04:18:24.812Z,18.02
2022-07-27T04:20:41.741Z,17.97
2022-07-27T04:22:58.743Z,17.91
2022-07-27T04:25:17.088Z,17.88
2022-07-27T04:27:34.018Z,17.78
2022-07-27T04:29:51.545Z,17.78
2022-07-27T04:32:08.517Z,17.75
2022-07-27T04:34:26.840Z,17.77
2022-07-27T04:36:43.896Z,17.85
2022-07-27T04:39:01.285Z,17.80
2022-07-27T04:41:18.409Z,17.86
2022-07-27T04:43:35.763Z,17.88
2022-07-27T04:45:53.128Z,17.86
2022-07-27T04:48:11.380Z,17.90
2022-07-27T04:50:28.733Z,17.85
2022-07-27T04:52:45.839Z,17.84
2022-07-27T04:55:02.838Z,17.85
2022-07-27T04:57:20.210Z,17.89
2022-07-27T04:59:37.507Z,17.96
2022-07-27T05:01:54.514Z,17.96
2022-07-27T05:04:11.640Z,17.94
2022-07-27T05:06:29.581Z,17.80
2022-07-27T05:08:46.632Z,17.88
2022-07-27T05:11:03.648Z,17.83
2022-07-27T05:13:20.933Z,17.85
2022-07-27T05:15:53.970Z,17.86
2022-07-27T05:18:13.667Z,17.90
2022-07-27T05:20:30.686Z,17.92
2022-07-27T05:22:48.015Z,17.93
2022-07-27T05:25:05.050Z,17.88
2022-07-27T05:27:22.343Z,17.95
2022-07-27T05:29:40.619Z,17.99
2022-07-27T05:31:57.738Z,18.07
2022-07-27T05:34:16.011Z,18.09
2022-07-27T05:36:33.077Z,18.11
2022-07-27T05:38:50.117Z,18.12
2022-07-27T05:41:07.408Z,18.15
2022-07-27T05:43:24.689Z,18.20
2022-07-27T05:45:42.611Z,18.26
2022-07-27T05:47:59.884Z,18.15
2022-07-27T05:50:17.204Z,18.22
2022-07-27T05:52:34.500Z,18.21
2022-07-27T05:54:51.476Z,18.20
2022-07-27T05:57:08.773Z,18.23
2022-07-27T05:59:26.822Z,18.32
2022-07-27T06:01:43.869Z,18.29
2022-07-27T06:04:02.157Z,18.43
2022-07-27T06:06:19.520Z,18.41
2022-07-27T06:08:36.570Z,18.65
2022-07-27T06:10:53.972Z,18.78
2022-07-27T06:13:11.221Z,18.96
2022-07-27T06:15:28.277Z,19.08
2022-07-27T06:17:46.357Z,19.13
2022-07-27T06:20:03.398Z,19.21
2022-07-27T06:22:20.472Z,19.22
2022-07-27T06:24:37.565Z,19.23
2022-07-27T06:26:55.807Z,19.51
2022-07-27T06:29:13.186Z,19.49
2022-07-27T06:31:35.633Z,19.46
2022-07-27T06:33:52.929Z,19.50
2022-07-27T06:36:10.309Z,19.43
2022-07-27T06:38:28.616Z,19.47
2022-07-27T06:40:45.934Z,19.56
2022-07-27T06:43:03.475Z,19.40
2022-07-27T06:45:20.588Z,19.52
2022-07-27T06:47:49.701Z,19.66
2022-07-27T06:50:07.219Z,19.68
2022-07-27T06:52:24.486Z,19.71
2022-07-27T06:54:41.409Z,19.70
2022-07-27T06:56:58.795Z,19.71
2022-07-27T06:59:16.011Z,19.87
2022-07-27T07:01:33.178Z,19.98
2022-07-27T07:03:50.310Z,20.04
2022-07-27T07:06:07.327Z,20.09
2022-07-27T07:08:24.353Z,20.08
2022-07-27T07:10:41.626Z,20.14
2022-07-27T07:12:58.656Z,20.35
2022-07-27T07:15:15.959Z,20.33
2022-07-27T07:17:33.230Z,20.36
2022-07-27T07:19:50.285Z,20.44
2022-07-27T07:22:08.311Z,20.51
2022-07-27T07:24:25.271Z,20.60
2022-07-27T07:26:44.135Z,20.51
2022-07-27T07:29:03.273Z,20.30
2022-07-27T07:31:20.302Z,20.40
2022-07-27T07:33:37.372Z,20.58
2022-07-27T07:36:12.798Z,20.63
2022-07-27T07:38:31.364Z,20.60
2022-07-27T07:40:50.415Z,20.49
2022-07-27T07:43:07.748Z,20.72
2022-07-27T07:45:24.802Z,20.90
2022-07-27T07:47:41.734Z,20.81
2022-07-27T07:49:59.048Z,20.92
2022-07-27T07:52:15.909Z,21.01
2022-07-27T07:54:33.229Z,20.87
2022-07-27T07:56:50.508Z,20.98
2022-07-27T07:59:07.472Z,20.79
2022-07-27T08:01:24.681Z,20.74
2022-07-27T08:03:46.151Z,20.71
2022-07-27T08:06:05.790Z,20.73
2022-07-27T08:08:24.290Z,20.55
2022-07-27T08:10:41.890Z,20.70
2022-07-27T08:12:58.959Z,20.84
2022-07-27T08:15:16.015Z,20.91
2022-07-27T08:17:33.059Z,20.96
2022-07-27T08:19:51.308Z,21.15
2022-07-27T08:22:08.572Z,21.19
2022-07-27T08:24:26.344Z,21.20
2022-07-27T08:26:44.594Z,21.27
2022-07-27T08:29:11.334Z,21.39
2022-07-27T08:31:52.289Z,21.41
2022-07-27T08:34:07.587Z,21.34
2022-07-27T08:36:24.705Z,21.37
2022-07-27T08:38:42.736Z,21.46
2022-07-27T08:40:59.760Z,21.63
2022-07-27T08:43:23.674Z,21.73
2022-07-27T08:45:42.385Z,21.98
2022-07-27T08:47:59.477Z,22.22
2022-07-27T08:50:16.780Z,22.10
2022-07-27T08:52:33.855Z,22.09
2022-07-27T08:54:51.076Z,22.23
2022-07-27T08:57:09.467Z,22.22
2022-07-27T08:59:26.753Z,22.21
2022-07-27T09:01:44.138Z,22.45
2022-07-27T09:04:01.610Z,22.38
2022-07-27T09:06:18.682Z,22.59
2022-07-27T09:08:35.616Z,22.40
2022-07-27T09:10:53.010Z,22.37
2022-07-27T09:13:12.504Z,22.38
2022-07-27T09:15:34.473Z,22.57
2022-07-27T09:17:52.136Z,22.68
2022-07-27T09:20:13.108Z,22.69
2022-07-27T09:22:32.994Z,22.58
2022-07-27T09:24:50.357Z,22.51
2022-07-27T09:27:07.593Z,22.71
2022-07-27T09:29:24.923Z,22.92
2022-07-27T09:31:42.281Z,23.23
2022-07-27T09:33:59.467Z,23.38
2022-07-27T09:36:16.691Z,23.45
2022-07-27T09:38:34.216Z,23.46
2022-07-27T09:40:51.227Z,23.64
2022-07-27T09:43:52.306Z,23.58
2022-07-27T09:45:51.608Z,23.73
2022-07-27T09:48:13.884Z,23.74
2022-07-27T09:50:35.651Z,23.50
2022-07-27T09:52:53.294Z,23.57
2022-07-27T09:55:11.431Z,23.70
2022-07-27T09:57:29.558Z,23.87
2022-07-27T09:59:46.716Z,24.05
2022-07-27T10:02:04.124Z,24.17
2022-07-27T10:04:21.264Z,24.42
2022-07-27T10:07:01.253Z,24.55
2022-07-27T10:09:18.170Z,24.58
2022-07-27T10:11:35.297Z,24.81
2022-07-27T10:13:52.293Z,24.75
2022-07-27T10:16:10.371Z,24.50
2022-07-27T10:18:27.493Z,24.02
2022-07-27T10:20:47.596Z,23.89
2022-07-27T10:23:07.379Z,23.63
2022-07-27T10:25:24.652Z,23.54
2022-07-27T10:27:42.819Z,23.43
2022-07-27T10:29:59.823Z,23.86
2022-07-27T10:32:16.872Z,23.90
2022-07-27T10:34:34.159Z,23.80
2022-07-27T10:36:51.446Z,23.88
2022-07-27T10:39:09.911Z,23.87
2022-07-27T10:41:27.347Z,24.33
2022-07-27T10:43:44.481Z,24.78
2022-07-27T10:46:04.170Z,24.85
2022-07-27T10:48:21.535Z,24.80
2022-07-27T10:50:44.290Z,24.84
2022-07-27T10:53:03.522Z,24.67
2022-07-27T10:55:20.581Z,24.53
2022-07-27T10:57:37.602Z,24.71
2022-07-27T11:00:08.652Z,25.01
2022-07-27T11:02:30.749Z,24.89
2022-07-27T11:04:47.772Z,24.99
2022-07-27T11:07:23.964Z,25.26
2022-07-27T11:12:19.927Z,25.93
2022-07-27T11:14:37.303Z,25.72
2022-07-27T11:16:56.654Z,25.70
2022-07-27T11:19:18.464Z,25.53
2022-07-27T11:21:35.662Z,25.23
2022-07-27T11:23:52.696Z,25.24
2022-07-27T11:26:10.024Z,25.22
2022-07-27T11:28:27.392Z,25.16
2022-07-27T11:30:45.384Z,25.26
2022-07-27T11:33:02.542Z,25.21
2022-07-27T11:35:20.392Z,25.10
2022-07-27T11:37:37.931Z,24.99
2022-07-27T11:40:14.024Z,24.57
2022-07-27T11:42:38.041Z,24.44
2022-07-27T11:44:57.098Z,24.37
2022-07-27T11:47:15.364Z,23.97
2022-07-27T11:49:32.488Z,24.13
2022-07-27T11:51:49.848Z,24.46
2022-07-27T11:54:07.962Z,25.03
2022-07-27T11:56:26.161Z,25.31
2022-07-27T11:58:45.139Z,25.29
2022-07-27T12:01:03.224Z,25.29
2022-07-27T12:03:20.526Z,25.69
2022-07-27T12:05:38.690Z,26.01
2022-07-27T12:07:56.073Z,26.16
2022-07-27T12:10:13.132Z,26.26
2022-07-27T12:12:30.405Z,26.17
2022-07-27T12:14:47.688Z,26.15
2022-07-27T12:17:06.032Z,26.30
2022-07-27T12:19:24.161Z,26.50
2022-07-27T12:21:45.420Z,26.43
2022-07-27T12:24:05.481Z,26.59
2022-07-27T12:26:22.651Z,26.84
2022-07-27T12:28:41.029Z,27.04
2022-07-27T12:30:58.350Z,27.18
2022-07-27T12:33:15.358Z,27.21
2022-07-27T12:35:37.064Z,27.23
2022-07-27T12:37:55.491Z,26.84
2022-07-27T12:40:20.278Z,26.22
2022-07-27T12:42:37.496Z,26.08
2022-07-27T12:44:54.788Z,26.38
2022-07-27T12:47:12.225Z,26.55
2022-07-27T12:49:29.262Z,26.88
2022-07-27T12:51:46.717Z,27.34
2022-07-27T12:54:03.777Z,27.26
2022-07-27T12:56:27.401Z,27.02
2022-07-27T12:58:44.796Z,26.40
2022-07-27T13:01:02.164Z,26.35
2022-07-27T13:03:20.279Z,26.52
2022-07-27T13:05:37.528Z,26.82
2022-07-27T13:07:54.961Z,27.05
2022-07-27T13:10:13.040Z,27.10
2022-07-27T13:12:30.327Z,27.03
2022-07-27T13:14:47.313Z,26.58
2022-07-27T13:17:04.413Z,26.60
2022-07-27T13:19:22.490Z,26.59
2022-07-27T13:21:40.425Z,26.70
2022-07-27T13:23:57.679Z,26.54
2022-07-27T13:26:14.990Z,26.45
2022-07-27T13:28:32.065Z,26.21
2022-07-27T13:30:49.336Z,25.94
2022-07-27T13:33:06.629Z,25.87
2022-07-27T13:35:23.915Z,25.63
2022-07-27T13:37:40.970Z,25.63
2022-07-27T13:39:58.055Z,25.78
2022-07-27T13:42:15.232Z,25.90
2022-07-27T13:44:59.291Z,26.20
2022-07-27T13:47:10.603Z,26.34
2022-07-27T13:49:27.678Z,26.20
2022-07-27T13:51:46.333Z,26.15
2022-07-27T13:54:03.387Z,26.62
2022-07-27T13:56:23.432Z,26.43
2022-07-27T13:58:42.360Z,26.35
2022-07-27T14:01:02.787Z,26.21
2022-07-27T14:03:24.126Z,26.55
2022-07-27T14:05:49.487Z,26.54
2022-07-27T14:08:06.717Z,26.93
2022-07-27T14:10:24.037Z,26.88
2022-07-27T14:12:41.087Z,26.72
2022-07-27T14:14:58.134Z,26.92
2022-07-27T14:17:15.231Z,27.30
2022-07-27T14:19:32.165Z,27.28
2022-07-27T14:21:51.456Z,27.31
2022-07-27T14:24:08.739Z,27.39
2022-07-27T14:26:25.843Z,27.36
2022-07-27T14:28:42.872Z,27.12
2022-07-27T14:30:59.929Z,27.10
2022-07-27T14:33:17.164Z,27.16
2022-07-27T14:35:40.302Z,27.38
2022-07-27T14:37:58.074Z,27.50
2022-07-27T14:40:15.047Z,27.42
2022-07-27T14:42:32.030Z,27.41
2022-07-27T14:44:49.016Z,27.58
2022-07-27T14:47:07.426Z,27.53
2022-07-27T14:49:25.681Z,27.12
2022-07-27T14:51:43.046Z,26.90
2022-07-27T14:54:00.157Z,27.23
2022-07-27T14:56:18.087Z,27.61
2022-07-27T14:58:35.381Z,27.93
2022-07-27T15:00:52.502Z,27.99
2022-07-27T15:03:14.753Z,28.04
2022-07-27T15:05:32.243Z,27.80
2022-07-27T15:07:50.651Z,27.66
2022-07-27T15:10:07.919Z,27.85
2022-07-27T15:12:24.927Z,27.97
2022-07-27T15:14:41.968Z,28.09
2022-07-27T15:17:00.032Z,28.06
2022-07-27T15:19:17.381Z,27.86
2022-07-27T15:21:35.412Z,27.83
2022-07-27T15:23:52.426Z,27.99
2022-07-27T15:26:09.447Z,28.12
2022-07-27T15:28:26.482Z,28.04
2022-07-27T15:30:44.817Z,28.05
2022-07-27T15:33:01.763Z,27.88
2022-07-27T15:35:19.075Z,27.65
2022-07-27T15:37:36.363Z,27.40
2022-07-27T15:39:53.414Z,27.62
2022-07-27T15:42:11.093Z,27.60
2022-07-27T15:44:28.172Z,27.64
2022-07-27T15:46:45.488Z,27.31
2022-07-27T15:49:02.590Z,27.26
2022-07-27T15:51:19.698Z,27.22
2022-07-27T15:53:36.738Z,27.39
2022-07-27T15:55:53.985Z,27.30
2022-07-27T15:58:10.994Z,27.40
2022-07-27T16:00:28.802Z,27.47
2022-07-27T16:02:46.035Z,27.44
2022-07-27T16:05:03.705Z,27.32
2022-07-27T16:07:22.867Z,27.31
2022-07-27T16:09:39.889Z,27.35
2022-07-27T16:11:56.967Z,27.23
2022-07-27T16:14:15.017Z,27.36
2022-07-27T16:16:32.029Z,27.43
2022-07-27T16:18:49.506Z,27.10
2022-07-27T16:21:06.793Z,27.18
2022-07-27T16:23:24.056Z,26.93
2022-07-27T16:26:02.554Z,27.00
2022-07-27T16:28:18.945Z,26.75
2022-07-27T16:30:38.251Z,26.78
2022-07-27T16:32:55.707Z,26.67
2022-07-27T16:35:14.039Z,26.76
2022-07-27T16:37:32.349Z,26.83
2022-07-27T16:39:50.935Z,26.74
2022-07-27T16:42:08.231Z,26.83
2022-07-27T16:44:25.480Z,26.80
2022-07-27T16:46:42.667Z,26.74
2022-07-27T16:49:00.111Z,26.50
2022-07-27T16:51:18.120Z,26.35
2022-07-27T16:53:35.400Z,26.40
2022-07-27T16:55:53.634Z,26.42
2022-07-27T16:58:11.042Z,26.34
2022-07-27T17:00:28.106Z,26.12
2022-07-27T17:02:45.125Z,26.11
2022-07-27T17:05:02.178Z,26.04
2022-07-27T17:07:19.239Z,25.84
2022-07-27T17:09:38.289Z,25.81
2022-07-27T17:11:55.580Z,25.86
2022-07-27T17:14:12.720Z,25.80
2022-07-27T17:16:30.026Z,25.85
2022-07-27T17:18:47.358Z,25.83
2022-07-27T17:21:04.605Z,25.76
2022-07-27T17:23:21.872Z,25.66
2022-07-27T17:25:38.913Z,25.68
2022-07-27T17:27:56.189Z,25.44
2022-07-27T17:30:14.146Z,25.34
2022-07-27T17:32:31.205Z,25.15
2022-07-27T17:34:48.176Z,25.15
2022-07-27T17:37:05.248Z,25.15
2022-07-27T17:39:22.303Z,25.11
2022-07-27T17:41:39.274Z,24.96
2022-07-27T17:43:56.331Z,24.71
2022-07-27T17:46:14.391Z,24.64
2022-07-27T17:48:31.532Z,24.57
2022-07-27T17:50:48.802Z,24.28
2022-07-27T17:53:07.062Z,24.20
2022-07-27T17:55:26.411Z,24.20
2022-07-27T17:57:43.480Z,24.14
2022-07-27T18:00:00.819Z,24.05
2022-07-27T18:02:17.857Z,23.90
2022-07-27T18:04:39.222Z,23.70
2022-07-27T18:06:57.047Z,23.61
2022-07-27T18:09:14.792Z,23.55
2022-07-27T18:11:32.499Z,23.34
2022-07-27T18:13:49.520Z,23.24
2022-07-27T18:16:06.532Z,23.10
2022-07-27T18:18:24.600Z,23.06
2022-07-27T18:20:41.860Z,22.93
2022-07-27T18:22:59.870Z,22.83
2022-07-27T18:25:17.135Z,22.73
2022-07-27T18:27:34.153Z,22.57
2022-07-27T18:29:51.103Z,22.44
2022-07-27T18:32:08.435Z,22.39
2022-07-27T18:34:25.530Z,22.36
2022-07-27T18:36:42.591Z,22.30
2022-07-27T18:39:00.905Z,22.19
2022-07-27T18:41:17.912Z,22.13
2022-07-27T18:43:35.193Z,21.97
2022-07-27T18:45:52.192Z,21.91
2022-07-27T18:48:09.228Z,21.75
2022-07-27T18:50:26.266Z,21.69
2022-07-27T18:52:43.624Z,21.54
2022-07-27T18:55:00.669Z,21.42
2022-07-27T18:57:17.858Z,21.38
2022-07-27T18:59:36.976Z,21.29
2022-07-27T19:01:58.482Z,21.19
2022-07-27T19:04:15.894Z,21.12
2022-07-27T19:06:33.433Z,21.09
2022-07-27T19:08:52.570Z,20.98
2022-07-27T19:11:09.924Z,20.84
2022-07-27T19:13:27.004Z,20.78
2022-07-27T19:15:44.053Z,20.77
2022-07-27T19:18:01.050Z,20.71
2022-07-27T19:20:18.302Z,20.68
2022-07-27T19:22:35.283Z,20.65
2022-07-27T19:24:54.941Z,20.52
2022-07-27T19:27:12.196Z,20.48
2022-07-27T19:29:29.426Z,20.39
2022-07-27T19:31:46.661Z,20.32
2022-07-27T19:34:03.731Z,20.26
2022-07-27T19:36:20.685Z,20.27
2022-07-27T19:38:37.608Z,20.14
2022-07-27T19:40:54.908Z,20.14
2022-07-27T19:43:11.839Z,20.01
2022-07-27T19:45:28.878Z,19.88
2022-07-27T19:47:46.207Z,19.86
2022-07-27T19:50:04.428Z,19.81
2022-07-27T19:52:22.660Z,19.76
2022-07-27T19:54:39.687Z,19.71
2022-07-27T19:56:57.948Z,19.69
2022-07-27T19:59:15.328Z,19.64
2022-07-27T20:01:32.642Z,19.59
2022-07-27T20:03:53.929Z,19.51
2022-07-27T20:06:12.122Z,19.44
2022-07-27T20:08:29.613Z,19.33
2022-07-27T20:10:47.474Z,19.31
2022-07-27T20:13:05.552Z,19.25
2022-07-27T20:15:22.887Z,19.16
2022-07-27T20:17:40.586Z,19.08
2022-07-27T20:19:57.906Z,18.98
2022-07-27T20:22:14.939Z,18.93
2022-07-27T20:24:32.214Z,18.86
2022-07-27T20:26:49.476Z,18.90
2022-07-27T20:29:07.652Z,18.84
2022-07-27T20:31:24.673Z,18.81
2022-07-27T20:33:42.481Z,18.76
2022-07-27T20:35:59.625Z,18.66
2022-07-27T20:38:16.669Z,18.55
2022-07-27T20:40:33.745Z,18.50
2022-07-27T20:42:50.796Z,18.49
2022-07-27T20:45:07.840Z,18.43
2022-07-27T20:47:24.893Z,18.34
2022-07-27T20:49:42.191Z,18.29
2022-07-27T20:51:59.271Z,18.18
2022-07-27T20:54:16.232Z,18.12
2022-07-27T20:56:33.514Z,18.05
2022-07-27T20:58:50.454Z,17.98
2022-07-27T21:01:07.815Z,17.91
2022-07-27T21:03:25.160Z,17.91
2022-07-27T21:05:42.178Z,17.89
2022-07-27T21:07:59.209Z,17.85
2022-07-27T21:10:17.254Z,17.72
2022-07-27T21:12:34.543Z,17.69
2022-07-27T21:14:51.489Z,17.65
2022-07-27T21:17:08.448Z,17.59
2022-07-27T21:19:25.750Z,17.55
2022-07-27T21:21:42.741Z,17.46
2022-07-27T21:23:59.791Z,17.43
2022-07-27T21:26:18.465Z,17.41
2022-07-27T21:28:35.551Z,17.37
2022-07-27T21:30:53.540Z,17.25
2022-07-27T21:33:10.600Z,17.15
2022-07-27T21:35:27.587Z,17.06
2022-07-27T21:37:44.559Z,16.98
2022-07-27T21:40:02.045Z,16.94
2022-07-27T21:42:19.154Z,16.88
2022-07-27T21:44:36.198Z,16.86
2022-07-27T21:46:53.259Z,16.90
2022-07-27T21:49:10.285Z,16.88
2022-07-27T21:51:27.805Z,16.80
2022-07-27T21:53:45.263Z,16.77
2022-07-27T21:56:02.677Z,16.74
2022-07-27T21:58:19.785Z,16.64
2022-07-27T22:00:36.866Z,16.52
2022-07-27T22:02:53.914Z,16.46
2022-07-27T22:05:11.214Z,16.42
2022-07-27T22:07:28.253Z,16.44
2022-07-27T22:09:46.302Z,16.36
2022-07-27T22:12:03.561Z,16.31
2022-07-27T22:14:20.677Z,16.29
2022-07-27T22:16:37.787Z,16.19
2022-07-27T22:18:56.110Z,16.17
2022-07-27T22:21:13.441Z,16.13
2022-07-27T22:23:30.817Z,16.24
2022-07-27T22:25:47.857Z,16.17
2022-07-27T22:28:05.081Z,16.15
2022-07-27T22:30:22.178Z,16.06
2022-07-27T22:32:39.446Z,15.97
2022-07-27T22:34:57.792Z,15.91
2022-07-27T22:37:15.036Z,15.89
2022-07-27T22:39:32.325Z,15.93
2022-07-27T22:41:49.420Z,15.89
2022-07-27T22:44:06.444Z,15.87
2022-07-27T22:46:25.814Z,15.82
2022-07-27T22:48:43.185Z,15.81
2022-07-27T22:51:00.265Z,15.76
2022-07-27T22:53:17.237Z,15.64
2022-07-27T22:55:34.508Z,15.58
2022-07-27T22:57:51.815Z,15.61
2022-07-27T23:00:08.746Z,15.62
2022-07-27T23:02:25.990Z,15.54
2022-07-27T23:04:43.041Z,15.45
2022-07-27T23:07:00.024Z,15.43
2022-07-27T23:09:17.073Z,15.40
2022-07-27T23:11:34.062Z,15.33
2022-07-27T23:13:51.403Z,15.26
2022-07-27T23:16:08.523Z,15.24
2022-07-27T23:18:25.962Z,15.16
2022-07-27T23:20:43.222Z,15.17
2022-07-27T23:23:01.331Z,15.15
2022-07-27T23:25:20.020Z,15.20
2022-07-27T23:27:39.927Z,15.11
2022-07-27T23:29:57.575Z,15.02
2022-07-27T23:32:15.663Z,15.00
2022-07-27T23:34:32.743Z,14.97
2022-07-27T23:36:49.746Z,14.93
2022-07-27T23:39:07.047Z,14.88
2022-07-27T23:41:24.180Z,14.76
2022-07-27T23:43:41.236Z,14.68
2022-07-27T23:45:58.589Z,14.60
2022-07-27T23:48:15.567Z,14.58
2022-07-27T23:50:34.164Z,14.55
2022-07-27T23:52:51.250Z,14.55
2022-07-27T23:55:08.678Z,14.48
2022-07-27T23:57:26.651Z,14.42
2022-07-27T23:59:43.755Z,14.40
